sensor_id;sensor_type;location;lat;lon;timestamp;P1;durP1;ratioP1;P2;durP2;ratioP2
20890;SDS011;10605;52.968;8.844;2022-07-06T00:00:42;2.80;;;1.55;;
20890;SDS011;10605;52.968;8.844;2022-07-06T00:03:17;4.80;;;1.52;;
20890;SDS011;10605;52.968;8.844;2022-07-06T00:06:00;3.88;;;1.90;;
20890;SDS011;10605;52.968;8.844;2022-07-06T00:08:36;7.55;;;1.83;;
20890;SDS011;10605;52.968;8.844;2022-07-06T00:13:58;3.28;;;1.35;;
20890;SDS011;10605;52.968;8.844;2022-07-06T00:19:27;2.78;;;1.83;;
20890;SDS011;10605;52.968;8.844;2022-07-06T00:22:10;3.17;;;1.70;;
20890;SDS011;10605;52.968;8.844;2022-07-06T00:24:52;2.70;;;1.70;;
20890;SDS011;10605;52.968;8.844;2022-07-06T00:27:35;5.28;;;1.95;;
20890;SDS011;10605;52.968;8.844;2022-07-06T00:30:01;3.90;;;1.80;;
20890;SDS011;10605;52.968;8.844;2022-07-06T00:32:34;8.82;;;2.10;;
20890;SDS011;10605;52.968;8.844;2022-07-06T00:35:02;3.47;;;1.85;;
20890;SDS011;10605;52.968;8.844;2022-07-06T00:37:33;3.95;;;2.08;;
20890;SDS011;10605;52.968;8.844;2022-07-06T00:40:06;5.00;;;2.40;;
20890;SDS011;10605;52.968;8.844;2022-07-06T00:42:41;4.60;;;2.30;;
20890;SDS011;10605;52.968;8.844;2022-07-06T00:45:14;3.17;;;1.73;;
20890;SDS011;10605;52.968;8.844;2022-07-06T00:48:12;6.47;;;1.70;;
20890;SDS011;10605;52.968;8.844;2022-07-06T00:50:42;5.43;;;1.80;;
20890;SDS011;10605;52.968;8.844;2022-07-06T00:53:17;2.72;;;1.70;;
20890;SDS011;10605;52.968;8.844;2022-07-06T00:55:48;3.60;;;1.85;;
20890;SDS011;10605;52.968;8.844;2022-07-06T00:58:26;5.18;;;1.95;;
20890;SDS011;10605;52.968;8.844;2022-07-06T01:00:54;7.43;;;2.10;;
20890;SDS011;10605;52.968;8.844;2022-07-06T01:03:25;1.67;;;1.50;;
20890;SDS011;10605;52.968;8.844;2022-07-06T01:08:45;8.07;;;2.20;;
20890;SDS011;10605;52.968;8.844;2022-07-06T01:11:32;4.85;;;1.83;;
20890;SDS011;10605;52.968;8.844;2022-07-06T01:14:15;7.00;;;1.90;;
20890;SDS011;10605;52.968;8.844;2022-07-06T01:16:42;6.95;;;1.73;;
20890;SDS011;10605;52.968;8.844;2022-07-06T01:19:14;4.88;;;2.00;;
20890;SDS011;10605;52.968;8.844;2022-07-06T01:21:45;8.27;;;1.67;;
20890;SDS011;10605;52.968;8.844;2022-07-06T01:24:16;7.57;;;2.03;;
20890;SDS011;10605;52.968;8.844;2022-07-06T01:26:48;10.00;;;2.25;;
20890;SDS011;10605;52.968;8.844;2022-07-06T01:29:16;6.32;;;1.60;;
20890;SDS011;10605;52.968;8.844;2022-07-06T01:31:46;4.97;;;1.67;;
20890;SDS011;10605;52.968;8.844;2022-07-06T01:34:24;9.15;;;1.83;;
20890;SDS011;10605;52.968;8.844;2022-07-06T01:36:52;7.03;;;1.92;;
20890;SDS011;10605;52.968;8.844;2022-07-06T01:39:17;3.17;;;1.75;;
20890;SDS011;10605;52.968;8.844;2022-07-06T01:41:49;5.78;;;1.65;;
20890;SDS011;10605;52.968;8.844;2022-07-06T01:44:24;5.28;;;1.85;;
20890;SDS011;10605;52.968;8.844;2022-07-06T01:46:52;11.60;;;2.42;;
20890;SDS011;10605;52.968;8.844;2022-07-06T01:49:20;4.80;;;1.70;;
20890;SDS011;10605;52.968;8.844;2022-07-06T01:51:48;3.80;;;1.75;;
20890;SDS011;10605;52.968;8.844;2022-07-06T01:54:26;4.85;;;1.90;;
20890;SDS011;10605;52.968;8.844;2022-07-06T01:56:52;4.93;;;2.25;;
20890;SDS011;10605;52.968;8.844;2022-07-06T01:59:18;8.57;;;1.88;;
20890;SDS011;10605;52.968;8.844;2022-07-06T02:01:46;6.72;;;2.00;;
20890;SDS011;10605;52.968;8.844;2022-07-06T02:04:26;6.45;;;2.15;;
20890;SDS011;10605;52.968;8.844;2022-07-06T02:07:13;5.25;;;2.03;;
20890;SDS011;10605;52.968;8.844;2022-07-06T02:09:43;2.72;;;1.65;;
20890;SDS011;10605;52.968;8.844;2022-07-06T02:12:14;4.28;;;2.10;;
20890;SDS011;10605;52.968;8.844;2022-07-06T02:14:54;8.75;;;1.83;;
20890;SDS011;10605;52.968;8.844;2022-07-06T02:17:37;2.25;;;1.80;;
20890;SDS011;10605;52.968;8.844;2022-07-06T02:20:08;7.57;;;1.90;;
20890;SDS011;10605;52.968;8.844;2022-07-06T02:22:34;4.78;;;1.88;;
20890;SDS011;10605;52.968;8.844;2022-07-06T02:25:38;4.78;;;1.67;;
20890;SDS011;10605;52.968;8.844;2022-07-06T02:28:26;4.85;;;1.70;;
20890;SDS011;10605;52.968;8.844;2022-07-06T02:30:55;5.20;;;2.22;;
20890;SDS011;10605;52.968;8.844;2022-07-06T02:33:26;3.63;;;2.00;;
20890;SDS011;10605;52.968;8.844;2022-07-06T02:35:57;7.38;;;1.77;;
20890;SDS011;10605;52.968;8.844;2022-07-06T02:38:40;4.32;;;1.90;;
20890;SDS011;10605;52.968;8.844;2022-07-06T02:41:05;5.38;;;2.05;;
20890;SDS011;10605;52.968;8.844;2022-07-06T02:43:31;4.05;;;2.10;;
20890;SDS011;10605;52.968;8.844;2022-07-06T02:46:04;5.32;;;2.47;;
20890;SDS011;10605;52.968;8.844;2022-07-06T02:48:36;7.45;;;2.10;;
20890;SDS011;10605;52.968;8.844;2022-07-06T02:51:09;4.47;;;2.25;;
20890;SDS011;10605;52.968;8.844;2022-07-06T02:53:45;6.88;;;1.92;;
20890;SDS011;10605;52.968;8.844;2022-07-06T02:56:33;1.60;;;1.50;;
20890;SDS011;10605;52.968;8.844;2022-07-06T02:59:06;8.63;;;2.40;;
20890;SDS011;10605;52.968;8.844;2022-07-06T03:01:32;3.70;;;1.88;;
20890;SDS011;10605;52.968;8.844;2022-07-06T03:04:33;6.80;;;2.13;;
20890;SDS011;10605;52.968;8.844;2022-07-06T03:07:01;2.47;;;1.85;;
20890;SDS011;10605;52.968;8.844;2022-07-06T03:09:29;4.43;;;2.03;;
20890;SDS011;10605;52.968;8.844;2022-07-06T03:12:00;8.35;;;2.33;;
20890;SDS011;10605;52.968;8.844;2022-07-06T03:14:28;11.05;;;2.40;;
20890;SDS011;10605;52.968;8.844;2022-07-06T03:19:47;6.85;;;2.58;;
20890;SDS011;10605;52.968;8.844;2022-07-06T03:22:28;7.82;;;2.25;;
20890;SDS011;10605;52.968;8.844;2022-07-06T03:24:57;6.25;;;2.40;;
20890;SDS011;10605;52.968;8.844;2022-07-06T03:27:30;4.28;;;2.22;;
20890;SDS011;10605;52.968;8.844;2022-07-06T03:30:23;4.97;;;2.22;;
20890;SDS011;10605;52.968;8.844;2022-07-06T03:32:51;4.13;;;1.88;;
20890;SDS011;10605;52.968;8.844;2022-07-06T03:35:25;6.32;;;2.17;;
20890;SDS011;10605;52.968;8.844;2022-07-06T03:37:51;10.45;;;2.30;;
20890;SDS011;10605;52.968;8.844;2022-07-06T03:40:19;8.40;;;2.40;;
20890;SDS011;10605;52.968;8.844;2022-07-06T03:42:54;7.32;;;2.10;;
20890;SDS011;10605;52.968;8.844;2022-07-06T03:45:28;5.88;;;2.83;;
20890;SDS011;10605;52.968;8.844;2022-07-06T03:47:53;3.90;;;2.08;;
20890;SDS011;10605;52.968;8.844;2022-07-06T03:50:19;5.38;;;2.25;;
20890;SDS011;10605;52.968;8.844;2022-07-06T03:52:52;14.45;;;2.70;;
20890;SDS011;10605;52.968;8.844;2022-07-06T03:55:20;7.25;;;2.05;;
20890;SDS011;10605;52.968;8.844;2022-07-06T03:57:51;5.60;;;2.08;;
20890;SDS011;10605;52.968;8.844;2022-07-06T04:00:19;8.82;;;2.47;;
20890;SDS011;10605;52.968;8.844;2022-07-06T04:02:48;3.08;;;1.77;;
20890;SDS011;10605;52.968;8.844;2022-07-06T04:05:17;4.53;;;2.00;;
20890;SDS011;10605;52.968;8.844;2022-07-06T04:07:50;6.30;;;2.10;;
20890;SDS011;10605;52.968;8.844;2022-07-06T04:10:19;5.07;;;2.10;;
20890;SDS011;10605;52.968;8.844;2022-07-06T04:12:53;4.20;;;1.95;;
20890;SDS011;10605;52.968;8.844;2022-07-06T04:15:22;5.47;;;2.35;;
20890;SDS011;10605;52.968;8.844;2022-07-06T04:17:57;4.47;;;2.13;;
20890;SDS011;10605;52.968;8.844;2022-07-06T04:20:27;6.20;;;1.90;;
20890;SDS011;10605;52.968;8.844;2022-07-06T04:22:59;3.00;;;2.08;;
20890;SDS011;10605;52.968;8.844;2022-07-06T04:25:27;3.00;;;1.88;;
20890;SDS011;10605;52.968;8.844;2022-07-06T04:31:03;5.05;;;1.88;;
20890;SDS011;10605;52.968;8.844;2022-07-06T04:33:28;2.97;;;1.83;;
20890;SDS011;10605;52.968;8.844;2022-07-06T04:39:05;10.70;;;1.85;;
20890;SDS011;10605;52.968;8.844;2022-07-06T04:41:40;4.60;;;1.92;;
20890;SDS011;10605;52.968;8.844;2022-07-06T04:44:32;5.03;;;1.92;;
20890;SDS011;10605;52.968;8.844;2022-07-06T04:47:11;4.47;;;1.83;;
20890;SDS011;10605;52.968;8.844;2022-07-06T04:49:58;4.28;;;2.00;;
20890;SDS011;10605;52.968;8.844;2022-07-06T04:52:26;2.47;;;1.60;;
20890;SDS011;10605;52.968;8.844;2022-07-06T04:55:12;6.43;;;1.70;;
20890;SDS011;10605;52.968;8.844;2022-07-06T04:57:39;3.25;;;1.60;;
20890;SDS011;10605;52.968;8.844;2022-07-06T05:00:23;3.90;;;1.80;;
20890;SDS011;10605;52.968;8.844;2022-07-06T05:03:09;2.90;;;1.35;;
20890;SDS011;10605;52.968;8.844;2022-07-06T05:05:37;3.08;;;1.80;;
20890;SDS011;10605;52.968;8.844;2022-07-06T05:08:12;5.60;;;1.40;;
20890;SDS011;10605;52.968;8.844;2022-07-06T05:10:40;10.48;;;1.77;;
20890;SDS011;10605;52.968;8.844;2022-07-06T05:13:05;3.75;;;1.30;;
20890;SDS011;10605;52.968;8.844;2022-07-06T05:15:34;3.45;;;1.35;;
20890;SDS011;10605;52.968;8.844;2022-07-06T05:18:05;3.42;;;1.30;;
20890;SDS011;10605;52.968;8.844;2022-07-06T05:20:56;5.38;;;1.27;;
20890;SDS011;10605;52.968;8.844;2022-07-06T05:23:22;8.48;;;1.80;;
20890;SDS011;10605;52.968;8.844;2022-07-06T05:25:48;4.30;;;1.30;;
20890;SDS011;10605;52.968;8.844;2022-07-06T05:28:29;2.38;;;1.33;;
20890;SDS011;10605;52.968;8.844;2022-07-06T05:30:55;5.53;;;1.25;;
20890;SDS011;10605;52.968;8.844;2022-07-06T05:33:28;3.40;;;1.10;;
20890;SDS011;10605;52.968;8.844;2022-07-06T05:36:09;5.53;;;1.30;;
20890;SDS011;10605;52.968;8.844;2022-07-06T05:41:46;5.18;;;0.93;;
20890;SDS011;10605;52.968;8.844;2022-07-06T05:44:14;6.10;;;1.23;;
20890;SDS011;10605;52.968;8.844;2022-07-06T05:46:45;2.05;;;0.90;;
20890;SDS011;10605;52.968;8.844;2022-07-06T05:49:11;1.40;;;1.13;;
20890;SDS011;10605;52.968;8.844;2022-07-06T05:51:58;3.25;;;1.35;;
20890;SDS011;10605;52.968;8.844;2022-07-06T05:54:36;5.10;;;1.10;;
20890;SDS011;10605;52.968;8.844;2022-07-06T05:57:23;4.88;;;1.40;;
20890;SDS011;10605;52.968;8.844;2022-07-06T05:59:54;3.45;;;1.10;;
20890;SDS011;10605;52.968;8.844;2022-07-06T06:02:25;7.07;;;1.40;;
20890;SDS011;10605;52.968;8.844;2022-07-06T06:04:52;3.88;;;0.73;;
20890;SDS011;10605;52.968;8.844;2022-07-06T06:07:18;5.55;;;1.30;;
20890;SDS011;10605;52.968;8.844;2022-07-06T06:09:56;3.63;;;1.10;;
20890;SDS011;10605;52.968;8.844;2022-07-06T06:12:31;2.65;;;1.00;;
20890;SDS011;10605;52.968;8.844;2022-07-06T06:18:31;3.25;;;1.10;;
20890;SDS011;10605;52.968;8.844;2022-07-06T06:20:56;5.80;;;1.63;;
20890;SDS011;10605;52.968;8.844;2022-07-06T06:23:22;5.53;;;0.90;;
20890;SDS011;10605;52.968;8.844;2022-07-06T06:25:47;4.13;;;1.00;;
20890;SDS011;10605;52.968;8.844;2022-07-06T06:28:13;5.70;;;0.88;;
20890;SDS011;10605;52.968;8.844;2022-07-06T06:30:39;1.48;;;0.80;;
20890;SDS011;10605;52.968;8.844;2022-07-06T06:33:08;5.07;;;0.70;;
20890;SDS011;10605;52.968;8.844;2022-07-06T06:35:41;2.90;;;0.80;;
20890;SDS011;10605;52.968;8.844;2022-07-06T06:38:08;8.52;;;1.15;;
20890;SDS011;10605;52.968;8.844;2022-07-06T06:40:33;7.88;;;0.90;;
20890;SDS011;10605;52.968;8.844;2022-07-06T06:42:59;7.95;;;1.02;;
20890;SDS011;10605;52.968;8.844;2022-07-06T06:45:25;10.52;;;1.35;;
20890;SDS011;10605;52.968;8.844;2022-07-06T06:47:51;4.22;;;0.60;;
20890;SDS011;10605;52.968;8.844;2022-07-06T06:50:17;4.97;;;0.98;;
20890;SDS011;10605;52.968;8.844;2022-07-06T06:52:42;2.60;;;0.80;;
20890;SDS011;10605;52.968;8.844;2022-07-06T06:55:08;2.63;;;0.70;;
20890;SDS011;10605;52.968;8.844;2022-07-06T06:57:34;2.17;;;0.50;;
20890;SDS011;10605;52.968;8.844;2022-07-06T07:00:00;7.22;;;0.77;;
20890;SDS011;10605;52.968;8.844;2022-07-06T07:02:26;2.95;;;0.80;;
20890;SDS011;10605;52.968;8.844;2022-07-06T07:04:52;5.68;;;1.23;;
20890;SDS011;10605;52.968;8.844;2022-07-06T07:07:17;3.90;;;0.73;;
20890;SDS011;10605;52.968;8.844;2022-07-06T07:09:43;4.15;;;1.10;;
20890;SDS011;10605;52.968;8.844;2022-07-06T07:12:09;2.38;;;0.80;;
20890;SDS011;10605;52.968;8.844;2022-07-06T07:14:36;2.55;;;0.60;;
20890;SDS011;10605;52.968;8.844;2022-07-06T07:17:02;6.47;;;0.52;;
20890;SDS011;10605;52.968;8.844;2022-07-06T07:19:28;3.40;;;0.65;;
20890;SDS011;10605;52.968;8.844;2022-07-06T07:21:54;6.07;;;0.60;;
20890;SDS011;10605;52.968;8.844;2022-07-06T07:24:20;3.67;;;1.02;;
20890;SDS011;10605;52.968;8.844;2022-07-06T07:26:45;5.03;;;0.73;;
20890;SDS011;10605;52.968;8.844;2022-07-06T07:29:11;3.42;;;0.68;;
20890;SDS011;10605;52.968;8.844;2022-07-06T07:31:37;2.15;;;0.80;;
20890;SDS011;10605;52.968;8.844;2022-07-06T07:34:02;3.55;;;0.90;;
20890;SDS011;10605;52.968;8.844;2022-07-06T07:36:29;5.65;;;0.63;;
20890;SDS011;10605;52.968;8.844;2022-07-06T07:38:54;2.10;;;0.60;;
20890;SDS011;10605;52.968;8.844;2022-07-06T07:41:20;1.88;;;0.55;;
20890;SDS011;10605;52.968;8.844;2022-07-06T07:43:46;1.65;;;0.30;;
20890;SDS011;10605;52.968;8.844;2022-07-06T07:46:11;3.35;;;0.60;;
20890;SDS011;10605;52.968;8.844;2022-07-06T07:48:37;1.73;;;0.50;;
20890;SDS011;10605;52.968;8.844;2022-07-06T07:51:03;3.25;;;0.95;;
20890;SDS011;10605;52.968;8.844;2022-07-06T07:53:28;6.13;;;0.57;;
20890;SDS011;10605;52.968;8.844;2022-07-06T07:55:54;2.95;;;0.60;;
20890;SDS011;10605;52.968;8.844;2022-07-06T07:58:20;2.45;;;0.45;;
20890;SDS011;10605;52.968;8.844;2022-07-06T08:00:45;5.15;;;0.63;;
20890;SDS011;10605;52.968;8.844;2022-07-06T08:03:11;5.05;;;0.60;;
20890;SDS011;10605;52.968;8.844;2022-07-06T08:05:37;3.83;;;0.47;;
20890;SDS011;10605;52.968;8.844;2022-07-06T08:08:03;1.20;;;0.50;;
20890;SDS011;10605;52.968;8.844;2022-07-06T08:10:29;3.65;;;0.60;;
20890;SDS011;10605;52.968;8.844;2022-07-06T08:12:55;1.33;;;0.40;;
20890;SDS011;10605;52.968;8.844;2022-07-06T08:15:21;1.92;;;0.40;;
20890;SDS011;10605;52.968;8.844;2022-07-06T08:17:47;1.95;;;0.63;;
20890;SDS011;10605;52.968;8.844;2022-07-06T08:20:13;3.00;;;0.60;;
20890;SDS011;10605;52.968;8.844;2022-07-06T08:22:39;2.80;;;0.47;;
20890;SDS011;10605;52.968;8.844;2022-07-06T08:25:06;1.55;;;0.50;;
20890;SDS011;10605;52.968;8.844;2022-07-06T08:27:32;2.10;;;0.63;;
20890;SDS011;10605;52.968;8.844;2022-07-06T08:29:58;2.22;;;0.40;;
20890;SDS011;10605;52.968;8.844;2022-07-06T08:32:25;2.78;;;0.47;;
20890;SDS011;10605;52.968;8.844;2022-07-06T08:34:51;2.25;;;0.70;;
20890;SDS011;10605;52.968;8.844;2022-07-06T08:37:18;0.85;;;0.40;;
20890;SDS011;10605;52.968;8.844;2022-07-06T08:39:44;1.00;;;0.43;;
20890;SDS011;10605;52.968;8.844;2022-07-06T08:42:10;2.08;;;0.52;;
20890;SDS011;10605;52.968;8.844;2022-07-06T08:44:37;3.70;;;0.70;;
20890;SDS011;10605;52.968;8.844;2022-07-06T08:47:04;3.83;;;0.50;;
20890;SDS011;10605;52.968;8.844;2022-07-06T08:49:31;3.17;;;0.70;;
20890;SDS011;10605;52.968;8.844;2022-07-06T08:51:58;1.92;;;0.70;;
20890;SDS011;10605;52.968;8.844;2022-07-06T08:54:25;4.10;;;0.50;;
20890;SDS011;10605;52.968;8.844;2022-07-06T08:56:51;4.88;;;0.70;;
20890;SDS011;10605;52.968;8.844;2022-07-06T08:59:19;3.25;;;0.70;;
20890;SDS011;10605;52.968;8.844;2022-07-06T09:01:45;2.50;;;0.40;;
20890;SDS011;10605;52.968;8.844;2022-07-06T09:04:12;4.35;;;0.40;;
20890;SDS011;10605;52.968;8.844;2022-07-06T09:06:40;4.50;;;0.70;;
20890;SDS011;10605;52.968;8.844;2022-07-06T09:09:10;6.25;;;0.77;;
20890;SDS011;10605;52.968;8.844;2022-07-06T09:11:49;1.40;;;0.60;;
20890;SDS011;10605;52.968;8.844;2022-07-06T09:14:16;4.03;;;0.80;;
20890;SDS011;10605;52.968;8.844;2022-07-06T09:16:43;2.53;;;0.38;;
20890;SDS011;10605;52.968;8.844;2022-07-06T09:19:11;2.35;;;0.50;;
20890;SDS011;10605;52.968;8.844;2022-07-06T09:21:37;2.20;;;1.02;;
20890;SDS011;10605;52.968;8.844;2022-07-06T09:24:08;6.22;;;1.10;;
20890;SDS011;10605;52.968;8.844;2022-07-06T09:26:35;5.18;;;0.90;;
20890;SDS011;10605;52.968;8.844;2022-07-06T09:29:03;3.80;;;0.70;;
20890;SDS011;10605;52.968;8.844;2022-07-06T09:31:30;4.70;;;0.63;;
20890;SDS011;10605;52.968;8.844;2022-07-06T09:33:59;2.35;;;0.80;;
20890;SDS011;10605;52.968;8.844;2022-07-06T09:36:38;5.45;;;0.50;;
20890;SDS011;10605;52.968;8.844;2022-07-06T09:39:18;7.28;;;1.08;;
20890;SDS011;10605;52.968;8.844;2022-07-06T09:41:47;3.40;;;0.50;;
20890;SDS011;10605;52.968;8.844;2022-07-06T09:44:18;6.53;;;0.80;;
20890;SDS011;10605;52.968;8.844;2022-07-06T09:46:52;4.85;;;0.88;;
20890;SDS011;10605;52.968;8.844;2022-07-06T09:49:20;1.50;;;0.60;;
20890;SDS011;10605;52.968;8.844;2022-07-06T09:51:47;4.43;;;0.50;;
20890;SDS011;10605;52.968;8.844;2022-07-06T09:54:15;7.65;;;0.68;;
20890;SDS011;10605;52.968;8.844;2022-07-06T09:56:42;2.08;;;0.50;;
20890;SDS011;10605;52.968;8.844;2022-07-06T09:59:09;2.20;;;0.45;;
20890;SDS011;10605;52.968;8.844;2022-07-06T10:01:40;5.93;;;0.32;;
20890;SDS011;10605;52.968;8.844;2022-07-06T10:04:07;1.40;;;0.43;;
20890;SDS011;10605;52.968;8.844;2022-07-06T10:06:33;1.60;;;0.30;;
20890;SDS011;10605;52.968;8.844;2022-07-06T10:09:00;0.85;;;0.20;;
20890;SDS011;10605;52.968;8.844;2022-07-06T10:11:28;2.22;;;0.47;;
20890;SDS011;10605;52.968;8.844;2022-07-06T10:13:55;1.05;;;0.20;;
20890;SDS011;10605;52.968;8.844;2022-07-06T10:16:22;2.05;;;0.50;;
20890;SDS011;10605;52.968;8.844;2022-07-06T10:18:50;1.05;;;0.30;;
20890;SDS011;10605;52.968;8.844;2022-07-06T10:21:21;1.10;;;0.17;;
20890;SDS011;10605;52.968;8.844;2022-07-06T10:23:47;0.35;;;0.30;;
20890;SDS011;10605;52.968;8.844;2022-07-06T10:26:15;1.27;;;0.63;;
20890;SDS011;10605;52.968;8.844;2022-07-06T10:28:42;5.93;;;0.30;;
20890;SDS011;10605;52.968;8.844;2022-07-06T10:31:08;4.47;;;0.30;;
20890;SDS011;10605;52.968;8.844;2022-07-06T10:33:34;0.47;;;0.20;;
20890;SDS011;10605;52.968;8.844;2022-07-06T10:36:02;0.30;;;0.17;;
20890;SDS011;10605;52.968;8.844;2022-07-06T10:38:34;0.68;;;0.10;;
20890;SDS011;10605;52.968;8.844;2022-07-06T10:41:04;1.38;;;0.20;;
20890;SDS011;10605;52.968;8.844;2022-07-06T10:43:52;4.03;;;0.20;;
20890;SDS011;10605;52.968;8.844;2022-07-06T10:46:17;0.95;;;0.30;;
20890;SDS011;10605;52.968;8.844;2022-07-06T10:48:45;0.98;;;0.20;;
20890;SDS011;10605;52.968;8.844;2022-07-06T10:51:14;0.85;;;0.30;;
20890;SDS011;10605;52.968;8.844;2022-07-06T10:53:54;1.98;;;0.30;;
20890;SDS011;10605;52.968;8.844;2022-07-06T10:56:33;4.18;;;0.50;;
20890;SDS011;10605;52.968;8.844;2022-07-06T10:59:08;0.85;;;0.30;;
20890;SDS011;10605;52.968;8.844;2022-07-06T11:01:36;1.52;;;0.30;;
20890;SDS011;10605;52.968;8.844;2022-07-06T11:06:28;4.10;;;0.40;;
20890;SDS011;10605;52.968;8.844;2022-07-06T11:09:07;1.85;;;0.40;;
20890;SDS011;10605;52.968;8.844;2022-07-06T11:14:13;1.42;;;0.30;;
20890;SDS011;10605;52.968;8.844;2022-07-06T11:19:12;0.55;;;0.30;;
20890;SDS011;10605;52.968;8.844;2022-07-06T11:24:22;0.98;;;0.43;;
20890;SDS011;10605;52.968;8.844;2022-07-06T11:26:50;3.38;;;0.47;;
20890;SDS011;10605;52.968;8.844;2022-07-06T11:29:18;2.47;;;0.50;;
20890;SDS011;10605;52.968;8.844;2022-07-06T11:31:49;1.10;;;0.50;;
20890;SDS011;10605;52.968;8.844;2022-07-06T11:34:21;1.00;;;0.40;;
20890;SDS011;10605;52.968;8.844;2022-07-06T11:37:01;1.30;;;0.32;;
20890;SDS011;10605;52.968;8.844;2022-07-06T11:39:38;2.35;;;0.38;;
20890;SDS011;10605;52.968;8.844;2022-07-06T11:42:05;2.20;;;0.50;;
20890;SDS011;10605;52.968;8.844;2022-07-06T11:44:32;1.65;;;0.30;;
20890;SDS011;10605;52.968;8.844;2022-07-06T11:46:59;3.45;;;0.30;;
20890;SDS011;10605;52.968;8.844;2022-07-06T11:49:27;3.75;;;0.28;;
20890;SDS011;10605;52.968;8.844;2022-07-06T11:51:53;4.22;;;0.40;;
20890;SDS011;10605;52.968;8.844;2022-07-06T11:54:20;4.07;;;0.80;;
20890;SDS011;10605;52.968;8.844;2022-07-06T11:56:59;0.88;;;0.32;;
20890;SDS011;10605;52.968;8.844;2022-07-06T11:59:32;2.10;;;0.40;;
20890;SDS011;10605;52.968;8.844;2022-07-06T12:04:36;2.10;;;0.30;;
20890;SDS011;10605;52.968;8.844;2022-07-06T12:07:05;2.88;;;0.40;;
20890;SDS011;10605;52.968;8.844;2022-07-06T12:09:36;2.10;;;0.20;;
20890;SDS011;10605;52.968;8.844;2022-07-06T12:12:03;1.67;;;0.30;;
20890;SDS011;10605;52.968;8.844;2022-07-06T12:14:30;3.10;;;0.40;;
20890;SDS011;10605;52.968;8.844;2022-07-06T12:17:02;0.73;;;0.30;;
20890;SDS011;10605;52.968;8.844;2022-07-06T12:19:29;1.05;;;0.30;;
20890;SDS011;10605;52.968;8.844;2022-07-06T12:21:54;0.82;;;0.20;;
20890;SDS011;10605;52.968;8.844;2022-07-06T12:24:22;1.15;;;0.60;;
20890;SDS011;10605;52.968;8.844;2022-07-06T12:26:51;2.80;;;0.10;;
20890;SDS011;10605;52.968;8.844;2022-07-06T12:29:17;2.72;;;0.32;;
20890;SDS011;10605;52.968;8.844;2022-07-06T12:34:21;1.90;;;0.43;;
20890;SDS011;10605;52.968;8.844;2022-07-06T12:36:52;0.65;;;0.20;;
20890;SDS011;10605;52.968;8.844;2022-07-06T12:39:20;2.38;;;0.28;;
20890;SDS011;10605;52.968;8.844;2022-07-06T12:41:48;0.73;;;0.20;;
20890;SDS011;10605;52.968;8.844;2022-07-06T12:44:32;2.58;;;0.30;;
20890;SDS011;10605;52.968;8.844;2022-07-06T12:47:07;5.57;;;0.30;;
20890;SDS011;10605;52.968;8.844;2022-07-06T12:49:34;2.50;;;0.32;;
20890;SDS011;10605;52.968;8.844;2022-07-06T12:52:02;1.95;;;0.43;;
20890;SDS011;10605;52.968;8.844;2022-07-06T12:54:34;2.63;;;0.50;;
20890;SDS011;10605;52.968;8.844;2022-07-06T12:57:21;2.95;;;0.50;;
20890;SDS011;10605;52.968;8.844;2022-07-06T13:00:07;3.97;;;0.30;;
20890;SDS011;10605;52.968;8.844;2022-07-06T13:02:39;0.80;;;0.15;;
20890;SDS011;10605;52.968;8.844;2022-07-06T13:06:02;1.33;;;0.38;;
20890;SDS011;10605;52.968;8.844;2022-07-06T13:12:20;0.85;;;0.30;;
20890;SDS011;10605;52.968;8.844;2022-07-06T13:14:50;1.45;;;0.40;;
20890;SDS011;10605;52.968;8.844;2022-07-06T13:17:22;1.20;;;0.40;;
20890;SDS011;10605;52.968;8.844;2022-07-06T13:19:52;2.28;;;0.40;;
20890;SDS011;10605;52.968;8.844;2022-07-06T13:22:18;3.67;;;0.35;;
20890;SDS011;10605;52.968;8.844;2022-07-06T13:24:50;2.10;;;0.10;;
20890;SDS011;10605;52.968;8.844;2022-07-06T13:27:18;1.70;;;0.50;;
20890;SDS011;10605;52.968;8.844;2022-07-06T13:29:47;1.15;;;0.30;;
20890;SDS011;10605;52.968;8.844;2022-07-06T13:32:16;1.13;;;0.30;;
20890;SDS011;10605;52.968;8.844;2022-07-06T13:34:53;2.90;;;0.35;;
20890;SDS011;10605;52.968;8.844;2022-07-06T13:37:19;0.90;;;0.40;;
20890;SDS011;10605;52.968;8.844;2022-07-06T13:39:51;2.08;;;0.60;;
20890;SDS011;10605;52.968;8.844;2022-07-06T13:42:17;1.33;;;0.40;;
20890;SDS011;10605;52.968;8.844;2022-07-06T13:44:45;4.20;;;0.25;;
20890;SDS011;10605;52.968;8.844;2022-07-06T13:47:11;1.85;;;0.35;;
20890;SDS011;10605;52.968;8.844;2022-07-06T13:49:37;5.82;;;0.80;;
20890;SDS011;10605;52.968;8.844;2022-07-06T13:52:11;2.50;;;0.40;;
20890;SDS011;10605;52.968;8.844;2022-07-06T13:54:42;1.65;;;0.50;;
20890;SDS011;10605;52.968;8.844;2022-07-06T13:57:09;0.60;;;0.30;;
20890;SDS011;10605;52.968;8.844;2022-07-06T13:59:35;3.30;;;0.30;;
20890;SDS011;10605;52.968;8.844;2022-07-06T14:02:01;3.47;;;0.38;;
20890;SDS011;10605;52.968;8.844;2022-07-06T14:04:26;1.25;;;0.40;;
20890;SDS011;10605;52.968;8.844;2022-07-06T14:06:52;3.38;;;0.40;;
20890;SDS011;10605;52.968;8.844;2022-07-06T14:09:18;3.95;;;0.50;;
20890;SDS011;10605;52.968;8.844;2022-07-06T14:11:44;0.80;;;0.52;;
20890;SDS011;10605;52.968;8.844;2022-07-06T14:14:11;1.90;;;0.30;;
20890;SDS011;10605;52.968;8.844;2022-07-06T14:16:40;1.20;;;0.20;;
20890;SDS011;10605;52.968;8.844;2022-07-06T14:19:05;0.52;;;0.20;;
20890;SDS011;10605;52.968;8.844;2022-07-06T14:21:31;1.13;;;0.20;;
20890;SDS011;10605;52.968;8.844;2022-07-06T14:23:57;1.23;;;0.30;;
20890;SDS011;10605;52.968;8.844;2022-07-06T14:26:23;1.17;;;0.30;;
20890;SDS011;10605;52.968;8.844;2022-07-06T14:28:48;6.13;;;0.40;;
20890;SDS011;10605;52.968;8.844;2022-07-06T14:31:14;2.70;;;0.30;;
20890;SDS011;10605;52.968;8.844;2022-07-06T14:36:25;0.40;;;0.20;;
20890;SDS011;10605;52.968;8.844;2022-07-06T14:38:50;0.98;;;0.40;;
20890;SDS011;10605;52.968;8.844;2022-07-06T14:41:16;3.00;;;0.57;;
20890;SDS011;10605;52.968;8.844;2022-07-06T14:43:42;3.42;;;0.35;;
20890;SDS011;10605;52.968;8.844;2022-07-06T14:46:08;6.05;;;0.40;;
20890;SDS011;10605;52.968;8.844;2022-07-06T14:48:36;4.80;;;0.30;;
20890;SDS011;10605;52.968;8.844;2022-07-06T14:51:28;3.70;;;0.22;;
20890;SDS011;10605;52.968;8.844;2022-07-06T14:54:07;1.08;;;0.30;;
20890;SDS011;10605;52.968;8.844;2022-07-06T14:57:19;1.25;;;0.38;;
20890;SDS011;10605;52.968;8.844;2022-07-06T14:59:45;1.75;;;0.60;;
20890;SDS011;10605;52.968;8.844;2022-07-06T15:02:14;0.88;;;0.30;;
20890;SDS011;10605;52.968;8.844;2022-07-06T15:04:40;0.98;;;0.30;;
20890;SDS011;10605;52.968;8.844;2022-07-06T15:07:08;1.27;;;0.30;;
20890;SDS011;10605;52.968;8.844;2022-07-06T15:09:40;3.90;;;0.43;;
20890;SDS011;10605;52.968;8.844;2022-07-06T15:12:06;1.40;;;0.30;;
20890;SDS011;10605;52.968;8.844;2022-07-06T15:14:35;2.25;;;0.32;;
20890;SDS011;10605;52.968;8.844;2022-07-06T15:17:01;0.80;;;0.30;;
20890;SDS011;10605;52.968;8.844;2022-07-06T15:19:27;4.20;;;0.50;;
20890;SDS011;10605;52.968;8.844;2022-07-06T15:21:53;5.53;;;0.50;;
20890;SDS011;10605;52.968;8.844;2022-07-06T15:24:19;2.55;;;0.52;;
20890;SDS011;10605;52.968;8.844;2022-07-06T15:26:45;0.90;;;0.25;;
20890;SDS011;10605;52.968;8.844;2022-07-06T15:29:11;6.25;;;0.40;;
20890;SDS011;10605;52.968;8.844;2022-07-06T15:31:37;1.15;;;0.43;;
20890;SDS011;10605;52.968;8.844;2022-07-06T15:34:03;0.90;;;0.32;;
20890;SDS011;10605;52.968;8.844;2022-07-06T15:36:29;1.13;;;0.40;;
20890;SDS011;10605;52.968;8.844;2022-07-06T15:38:57;1.42;;;0.50;;
20890;SDS011;10605;52.968;8.844;2022-07-06T15:45:00;1.50;;;0.40;;
20890;SDS011;10605;52.968;8.844;2022-07-06T15:48:09;0.43;;;0.22;;
20890;SDS011;10605;52.968;8.844;2022-07-06T15:51:02;5.38;;;0.40;;
20890;SDS011;10605;52.968;8.844;2022-07-06T15:53:28;4.28;;;0.32;;
20890;SDS011;10605;52.968;8.844;2022-07-06T15:55:57;4.45;;;0.75;;
20890;SDS011;10605;52.968;8.844;2022-07-06T15:58:24;1.27;;;0.50;;